ADDS METAR Data INFO
IDs: Format: Raw Decoded Include TAF

Data at: 0032 UTC 23 Oct 2017

KPTV 222356Z AUTO VRB03KT 10SM CLR 23/08 A3026 RMK AO2 SLP258 T02330078 10244 20189 56010
KPTV 222256Z AUTO 00000KT 10SM CLR 23/07 A3027 RMK AO2 SLP261 T02330072
KPTV 222156Z AUTO 00000KT 10SM CLR 23/07 A3027 RMK AO2 SLP263 T02330072 TSNO
KPTV 222056Z AUTO 32006KT 10SM CLR 23/08 A3029 RMK AO2 SLP269 T02280078 58021
KPTV 221956Z AUTO 36006KT 10SM CLR 22/07 A3032 RMK AO2 SLP279 T02170072
KPTV 221856Z AUTO 30004KT 10SM CLR 20/07 A3035 RMK AO2 SLP289 T02000072
KPTV 221756Z AUTO 29004KT 10SM CLR 19/07 A3035 RMK AO2 SLP291 T01890067 10189 20067 50005
KPTV 221656Z AUTO 00000KT 10SM CLR 16/06 A3036 RMK AO2 SLP294 T01610061
KPTV 221456Z AUTO 12006KT 10SM CLR 08/04 A3034 RMK AO2 SLP289 T00830044 51009
KPTV 221356Z AUTO 14006KT 10SM CLR 07/04 A3034 RMK AO2 SLP287 T00720044
KPTV 221256Z AUTO 17004KT 10SM CLR 07/04 A3032 RMK AO2 SLP281 T00720044
KPTV 221156Z AUTO 08003KT 10SM CLR 09/05 A3031 RMK AO2 SLP278 T00940050 10117 20089 51002
KPTV 221056Z AUTO 00000KT 10SM CLR 09/06 A3031 RMK AO2 SLP278 T00940056
KPTV 220956Z AUTO 00000KT 10SM CLR 09/05 A3031 RMK AO2 SLP277 T00890050
KPTV 220856Z AUTO 10004KT 10SM CLR 09/06 A3031 RMK AO2 SLP276 T00940056 50002
KPTV 220756Z AUTO 09004KT 10SM CLR 10/05 A3031 RMK AO2 SLP277 T01000050
KPTV 220656Z AUTO 00000KT 10SM CLR 10/06 A3031 RMK AO2 SLP279 T01000061 402000056
KPTV 220556Z AUTO 10004KT 10SM CLR 12/06 A3030 RMK AO2 SLP275 T01170061 10200 20111 51014
KPTV 220456Z AUTO 10003KT 10SM CLR 12/06 A3029 RMK AO2 SLP270 T01170056
KPTV 220356Z AUTO 11004KT 10SM CLR 12/07 A3028 RMK AO2 SLP267 T01220067
KPTV 220256Z AUTO 00000KT 10SM CLR 14/07 A3026 RMK AO2 SLP262 T01440072 51015
KPTV 220156Z AUTO 00000KT 10SM CLR 16/06 A3025 RMK AO2 SLP258 T01610061
KPTV 220056Z AUTO 21003KT 10SM CLR 18/06 A3023 RMK AO2 SLP252 T01830061 TSNO
KPTV 212356Z AUTO VRB03KT 10SM CLR 19/06 A3021 RMK AO2 SLP245 T01940061 10200 20144 55002
KPTV 212256Z AUTO 19004KT 10SM CLR 19/06 A3021 RMK AO2 SLP243 T01940061 TSNO
KPTV 212156Z AUTO VRB06KT 10SM CLR 19/06 A3022 RMK AO2 SLP245 T01890061
KPTV 212056Z AUTO 27006KT 10SM CLR 18/07 A3022 RMK AO2 SLP247 T01830072 56016
KPTV 211956Z AUTO 24009KT 10SM CLR 18/07 A3023 RMK AO2 SLP249 T01780067
KPTV 211856Z AUTO 26005KT 10SM CLR 16/07 A3024 RMK AO2 SLP253 T01610072
KPTV 211756Z AUTO VRB04KT 10SM CLR 14/07 A3027 RMK AO2 SLP263 T01440072 10150 20056 50010
KPTV 211656Z AUTO 27006KT 10SM CLR 13/07 A3028 RMK AO2 SLP268 T01280072
KPTV 211556Z AUTO 18004KT 10SM CLR 11/07 A3027 RMK AO2 SLP264 T01110067
KPTV 211456Z AUTO 12006KT 10SM CLR 07/04 A3024 RMK AO2 SLP255 T00670044 51019
KPTV 211356Z AUTO 13003KT 10SM CLR 06/04 A3022 RMK AO2 SLP250 T00610044
KPTV 211256Z AUTO 16005KT 10SM CLR 06/03 A3020 RMK AO2 SLP241 T00560033